createdAt,value
2023-05-01T00:01:15.225Z,74.93
2023-05-01T00:03:41.910Z,74.67
2023-05-01T00:06:08.880Z,74.26
2023-05-01T00:08:35.512Z,74.62
2023-05-01T00:11:05.744Z,74.69
2023-05-01T00:13:32.309Z,74.74
2023-05-01T00:15:58.815Z,74.92
2023-05-01T00:18:25.335Z,74.75
2023-05-01T00:20:51.904Z,74.28
2023-05-01T00:23:18.494Z,74.49
2023-05-01T00:25:44.967Z,74.73
2023-05-01T00:28:11.469Z,74.29
2023-05-01T00:30:38.210Z,74.44
2023-05-01T00:33:04.783Z,74.30
2023-05-01T00:35:31.359Z,74.79
2023-05-01T00:37:58.440Z,74.42
2023-05-01T00:40:25.170Z,74.47
2023-05-01T00:42:51.735Z,74.88
2023-05-01T00:45:18.264Z,75.49
2023-05-01T00:47:44.987Z,75.56
2023-05-01T00:50:11.639Z,75.54
2023-05-01T00:52:38.110Z,76.21
2023-05-01T00:55:05.307Z,75.69
2023-05-01T00:57:32.550Z,75.77
2023-05-01T00:59:59.037Z,76.23
2023-05-01T01:02:27.112Z,76.70
2023-05-01T01:04:53.682Z,76.66
2023-05-01T01:07:37.015Z,76.66
2023-05-01T01:10:29.965Z,76.17
2023-05-01T01:13:07.850Z,76.55
2023-05-01T01:15:38.105Z,76.24
2023-05-01T01:18:21.920Z,75.83
2023-05-01T01:21:08.600Z,75.42
2023-05-01T01:23:53.993Z,75.67
2023-05-01T01:26:38.931Z,75.62
2023-05-01T01:29:17.700Z,75.70
2023-05-01T01:31:57.404Z,75.90
2023-05-01T01:34:30.768Z,75.69
2023-05-01T01:37:14.549Z,75.50
2023-05-01T01:39:58.913Z,75.83
2023-05-01T01:42:26.975Z,75.59
2023-05-01T01:44:55.629Z,75.78
2023-05-01T01:47:24.421Z,75.79
2023-05-01T01:49:52.241Z,75.70
2023-05-01T01:52:19.000Z,75.85
2023-05-01T01:54:49.765Z,75.96
2023-05-01T01:57:16.635Z,76.05
2023-05-01T01:59:43.097Z,76.28
2023-05-01T02:02:09.652Z,75.97
2023-05-01T02:04:36.195Z,76.02
2023-05-01T02:07:02.735Z,75.90
2023-05-01T02:09:29.791Z,76.45
2023-05-01T02:11:56.295Z,76.21
2023-05-01T02:14:23.523Z,76.10
2023-05-01T02:16:50.338Z,76.45
2023-05-01T02:19:17.025Z,76.51
2023-05-01T02:21:43.510Z,76.55
2023-05-01T02:24:10.590Z,76.32
2023-05-01T02:26:41.492Z,76.30
2023-05-01T02:29:08.104Z,76.95
2023-05-01T02:31:34.829Z,77.04
2023-05-01T02:34:01.394Z,77.07
2023-05-01T02:36:28.492Z,77.41
2023-05-01T02:38:54.981Z,77.64
2023-05-01T02:41:22.501Z,77.92
2023-05-01T02:43:51.648Z,78.11
2023-05-01T02:46:18.142Z,78.70
2023-05-01T02:48:44.648Z,78.54
2023-05-01T02:51:11.200Z,79.01
2023-05-01T02:53:39.672Z,78.48
2023-05-01T02:56:07.831Z,78.47
2023-05-01T02:58:34.406Z,78.43
2023-05-01T03:01:00.921Z,78.76
2023-05-01T03:03:30.240Z,77.93
2023-05-01T03:05:57.440Z,78.10
2023-05-01T03:08:24.096Z,77.85
2023-05-01T03:10:50.650Z,77.99
2023-05-01T03:13:17.579Z,77.72
2023-05-01T03:15:44.382Z,78.20
2023-05-01T03:18:10.978Z,78.38
2023-05-01T03:20:37.506Z,78.13
2023-05-01T03:23:04.022Z,78.67
2023-05-01T03:25:30.484Z,78.67
2023-05-01T03:27:56.998Z,78.82
2023-05-01T03:30:23.512Z,78.30
2023-05-01T03:32:51.647Z,78.09
2023-05-01T03:35:18.233Z,78.51
2023-05-01T03:37:44.744Z,78.06
2023-05-01T03:40:13.550Z,78.29
2023-05-01T03:42:40.020Z,78.43
2023-05-01T03:45:06.982Z,78.32
2023-05-01T03:47:33.472Z,78.42
2023-05-01T03:50:00.019Z,78.49
2023-05-01T03:52:26.580Z,78.08
2023-05-01T03:54:53.326Z,78.45
2023-05-01T03:57:23.276Z,77.99
2023-05-01T03:59:49.963Z,78.77
2023-05-01T04:02:16.520Z,78.28
2023-05-01T04:04:43.334Z,78.55
2023-05-01T04:07:09.985Z,77.98
2023-05-01T04:09:36.494Z,78.12
2023-05-01T04:12:03.080Z,77.50
2023-05-01T04:14:30.904Z,77.30
2023-05-01T04:16:58.038Z,76.72
2023-05-01T04:19:24.539Z,77.08
2023-05-01T04:21:50.994Z,77.17
2023-05-01T04:24:17.545Z,76.77
2023-05-01T04:26:43.993Z,76.50
2023-05-01T04:29:10.600Z,76.18
2023-05-01T04:31:37.207Z,76.24
2023-05-01T04:34:03.877Z,75.74
2023-05-01T04:36:32.904Z,75.78
2023-05-01T04:38:59.393Z,76.33
2023-05-01T04:41:25.840Z,77.07
2023-05-01T04:43:52.407Z,76.93
2023-05-01T04:46:18.914Z,76.94
2023-05-01T04:48:45.451Z,76.97
2023-05-01T04:51:11.948Z,77.23
2023-05-01T04:53:38.496Z,76.98
2023-05-01T04:56:05.330Z,75.80
2023-05-01T04:58:31.784Z,75.63
2023-05-01T05:00:58.280Z,75.23
2023-05-01T05:03:24.871Z,74.98
2023-05-01T05:05:51.418Z,75.24
2023-05-01T05:08:17.947Z,74.93
2023-05-01T05:10:44.455Z,75.03
2023-05-01T05:13:10.939Z,74.00
2023-05-01T05:15:37.610Z,75.06
2023-05-01T05:18:04.169Z,75.04
2023-05-01T05:20:30.784Z,74.87
2023-05-01T05:22:57.289Z,74.48
2023-05-01T05:25:24.281Z,74.23
2023-05-01T05:27:50.880Z,74.43
2023-05-01T05:30:17.379Z,74.15
2023-05-01T05:32:44.484Z,74.08
2023-05-01T05:35:11.181Z,74.42
2023-05-01T05:37:37.659Z,74.05
2023-05-01T05:40:04.420Z,74.16
2023-05-01T05:42:31.243Z,73.42
2023-05-01T05:44:57.744Z,74.48
2023-05-01T05:47:24.198Z,74.55
2023-05-01T05:49:50.721Z,74.13
2023-05-01T05:52:17.499Z,74.44
2023-05-01T05:54:45.427Z,74.12
2023-05-01T05:57:11.898Z,74.03
2023-05-01T05:59:38.579Z,73.63
2023-05-01T06:02:05.103Z,72.76
2023-05-01T06:04:31.825Z,73.63
2023-05-01T06:06:58.763Z,72.65
2023-05-01T06:09:26.295Z,72.90
2023-05-01T06:11:52.757Z,72.46
2023-05-01T06:14:19.213Z,72.72
2023-05-01T06:16:45.681Z,72.49
2023-05-01T06:19:12.245Z,72.98
2023-05-01T06:21:38.781Z,73.80
2023-05-01T06:24:05.345Z,73.12
2023-05-01T06:26:31.806Z,73.98
2023-05-01T06:28:58.291Z,73.72
2023-05-01T06:31:24.849Z,74.13
2023-05-01T06:33:51.347Z,73.85
2023-05-01T06:36:17.813Z,74.28
2023-05-01T06:38:48.598Z,75.06
2023-05-01T06:41:16.296Z,74.46
2023-05-01T06:43:42.812Z,74.26
2023-05-01T06:46:09.338Z,73.89
2023-05-01T06:48:35.876Z,73.80
2023-05-01T06:51:02.329Z,73.54
2023-05-01T06:53:28.778Z,73.10
2023-05-01T06:55:55.280Z,73.11
2023-05-01T06:58:24.052Z,72.72
2023-05-01T07:00:51.101Z,71.64
2023-05-01T07:03:17.755Z,71.43
2023-05-01T07:05:44.429Z,71.48
2023-05-01T07:08:11.126Z,71.44
2023-05-01T07:10:39.286Z,71.42
2023-05-01T07:13:09.958Z,70.19
2023-05-01T07:15:36.643Z,71.41
2023-05-01T07:18:05.832Z,70.66
2023-05-01T07:20:32.727Z,70.35
2023-05-01T07:22:59.223Z,70.77
2023-05-01T07:25:25.867Z,69.48
2023-05-01T07:27:52.655Z,71.09
2023-05-01T07:30:19.194Z,69.61
2023-05-01T07:32:45.717Z,69.10
2023-05-01T07:35:12.207Z,69.42
2023-05-01T07:37:38.703Z,69.17
2023-05-01T07:40:05.692Z,67.70
2023-05-01T07:42:32.190Z,68.66
2023-05-01T07:44:58.674Z,68.02
2023-05-01T07:47:25.315Z,67.69
2023-05-01T07:49:51.813Z,67.78
2023-05-01T07:52:18.288Z,67.53
2023-05-01T07:54:49.649Z,68.95
2023-05-01T07:57:16.510Z,68.19
2023-05-01T07:59:43.204Z,67.75
2023-05-01T08:02:09.683Z,68.22
2023-05-01T08:04:36.242Z,67.20
2023-05-01T08:07:02.862Z,67.40
2023-05-01T08:09:29.338Z,66.83
2023-05-01T08:11:55.800Z,68.12
2023-05-01T08:14:22.319Z,66.45
2023-05-01T08:16:54.207Z,66.74
2023-05-01T08:19:21.105Z,65.51
2023-05-01T08:21:47.583Z,66.22
2023-05-01T08:24:14.030Z,65.32
2023-05-01T08:26:40.496Z,65.31
2023-05-01T08:29:07.019Z,63.79
2023-05-01T08:31:35.835Z,64.16
2023-05-01T08:34:02.386Z,65.14
2023-05-01T08:36:28.859Z,64.11
2023-05-01T08:38:55.324Z,65.08
2023-05-01T08:41:22.156Z,63.78
2023-05-01T08:43:48.861Z,64.63
2023-05-01T08:46:39.139Z,63.09
2023-05-01T08:49:05.669Z,65.48
2023-05-01T08:51:32.134Z,63.57
2023-05-01T08:53:58.664Z,62.93
2023-05-01T08:56:25.254Z,63.44
2023-05-01T08:58:51.712Z,61.45
2023-05-01T09:01:18.245Z,60.85
2023-05-01T09:03:44.882Z,61.15
2023-05-01T09:06:11.831Z,60.17
2023-05-01T09:08:38.389Z,60.77
2023-05-01T09:11:04.852Z,60.16
2023-05-01T09:13:31.551Z,60.47
2023-05-01T09:15:58.138Z,61.10
2023-05-01T09:18:25.349Z,60.47
2023-05-01T09:20:51.984Z,59.88
2023-05-01T09:23:20.215Z,60.55
2023-05-01T09:25:46.724Z,60.70
2023-05-01T09:28:13.193Z,60.83
2023-05-01T09:30:39.781Z,62.15
2023-05-01T09:33:14.064Z,63.13
2023-05-01T09:35:56.276Z,62.32
2023-05-01T09:38:27.072Z,63.52
2023-05-01T09:40:56.388Z,64.57
2023-05-01T09:43:27.276Z,65.54
2023-05-01T09:46:05.279Z,65.65
2023-05-01T09:48:35.020Z,67.37
2023-05-01T09:51:02.630Z,66.29
2023-05-01T09:53:39.266Z,66.88
2023-05-01T09:56:06.567Z,65.63
2023-05-01T09:58:33.036Z,64.72
2023-05-01T10:01:00.261Z,62.46
2023-05-01T10:03:27.278Z,64.20
2023-05-01T10:05:56.839Z,62.83
2023-05-01T10:08:24.104Z,62.05
2023-05-01T10:11:02.548Z,61.66
2023-05-01T10:13:30.779Z,61.45
2023-05-01T10:15:57.244Z,62.02
2023-05-01T10:18:23.955Z,62.09
2023-05-01T10:20:51.536Z,61.39
2023-05-01T10:23:18.381Z,61.88
2023-05-01T10:25:44.861Z,61.44
2023-05-01T10:28:11.636Z,61.59
2023-05-01T10:30:38.138Z,63.60
2023-05-01T10:33:04.902Z,65.58
2023-05-01T10:35:33.369Z,66.79
2023-05-01T10:38:05.236Z,65.10
2023-05-01T10:40:41.017Z,66.14
2023-05-01T10:43:30.191Z,65.51
2023-05-01T10:48:54.332Z,66.05
2023-05-01T10:51:27.566Z,64.77
2023-05-01T10:54:13.189Z,63.25
2023-05-01T10:56:39.534Z,63.72
2023-05-01T10:59:06.367Z,63.30
2023-05-01T11:01:39.859Z,62.00
2023-05-01T11:04:24.642Z,62.66
2023-05-01T11:07:07.794Z,61.94
2023-05-01T11:09:44.876Z,61.06
2023-05-01T11:12:12.440Z,60.86
2023-05-01T11:15:05.272Z,61.43
2023-05-01T11:17:41.366Z,62.57
2023-05-01T11:20:08.518Z,61.31
2023-05-01T11:22:35.987Z,61.92
2023-05-01T11:25:05.711Z,62.48
2023-05-01T11:27:32.219Z,62.37
2023-05-01T11:29:58.833Z,63.52
2023-05-01T11:32:27.547Z,63.17
2023-05-01T11:34:54.735Z,63.35
2023-05-01T11:37:41.598Z,64.62
2023-05-01T11:40:22.111Z,65.11
2023-05-01T11:42:49.073Z,65.61
2023-05-01T11:45:15.667Z,66.31
2023-05-01T11:47:42.200Z,65.61
2023-05-01T11:50:09.457Z,67.52
2023-05-01T11:52:46.530Z,65.88
2023-05-01T11:55:13.138Z,65.59
2023-05-01T11:57:50.401Z,65.76
2023-05-01T12:00:27.169Z,64.06
2023-05-01T12:03:03.584Z,63.42
2023-05-01T12:05:30.924Z,63.54
2023-05-01T12:08:20.514Z,64.72
2023-05-01T12:10:56.109Z,64.87
2023-05-01T12:13:22.756Z,65.77
2023-05-01T12:15:55.978Z,64.78
2023-05-01T12:18:22.529Z,63.77
2023-05-01T12:20:52.967Z,62.75
2023-05-01T12:23:20.743Z,63.67
2023-05-01T12:25:47.401Z,61.95
2023-05-01T12:28:18.331Z,62.77
2023-05-01T12:30:46.102Z,61.61
2023-05-01T12:33:14.161Z,58.91
2023-05-01T12:35:41.142Z,59.27
2023-05-01T12:38:15.498Z,59.82
2023-05-01T12:40:57.811Z,58.05
2023-05-01T12:43:34.516Z,58.70
2023-05-01T12:46:01.121Z,58.30
2023-05-01T12:48:27.910Z,57.69
2023-05-01T12:50:55.110Z,57.85
2023-05-01T12:53:23.219Z,57.43
2023-05-01T12:55:51.083Z,57.37
2023-05-01T12:58:17.732Z,57.07
2023-05-01T13:00:49.135Z,59.73
2023-05-01T13:03:18.503Z,60.75
2023-05-01T13:05:54.967Z,63.47
2023-05-01T13:08:29.492Z,59.19
2023-05-01T13:10:57.291Z,59.67
2023-05-01T13:13:28.130Z,61.60
2023-05-01T13:15:54.803Z,59.27
2023-05-01T13:18:21.886Z,60.06
2023-05-01T13:20:48.378Z,59.84
2023-05-01T13:23:14.954Z,58.42
2023-05-01T13:25:41.498Z,58.39
2023-05-01T13:28:09.263Z,58.86
2023-05-01T13:30:35.826Z,58.08
2023-05-01T13:33:05.121Z,59.55
2023-05-01T13:35:31.666Z,59.93
2023-05-01T13:37:58.163Z,59.97
2023-05-01T13:40:24.632Z,60.56
2023-05-01T13:42:52.635Z,60.65
2023-05-01T13:45:20.144Z,61.79
2023-05-01T13:47:46.687Z,60.14
2023-05-01T13:50:13.480Z,60.43
2023-05-01T13:52:42.416Z,62.06
2023-05-01T13:55:09.088Z,61.07
2023-05-01T13:57:37.639Z,62.96
2023-05-01T14:00:08.122Z,61.54
2023-05-01T14:02:35.346Z,59.60
2023-05-01T14:05:02.089Z,60.92
2023-05-01T14:07:28.659Z,61.90
2023-05-01T14:09:59.665Z,61.09
2023-05-01T14:12:32.275Z,61.33
2023-05-01T14:15:00.157Z,61.64
2023-05-01T14:17:29.812Z,62.55
2023-05-01T14:19:56.303Z,63.48
2023-05-01T14:22:22.824Z,62.54
2023-05-01T14:24:50.008Z,63.14
2023-05-01T14:27:16.562Z,62.87
2023-05-01T14:29:46.441Z,63.15
2023-05-01T14:32:13.239Z,63.85
2023-05-01T14:34:41.036Z,64.08
2023-05-01T14:37:07.511Z,64.16
2023-05-01T14:39:34.016Z,63.86
2023-05-01T14:42:00.533Z,64.08
2023-05-01T14:44:28.442Z,64.30
2023-05-01T14:46:55.015Z,64.56
2023-05-01T14:49:22.714Z,63.90
2023-05-01T14:51:49.248Z,64.53
2023-05-01T14:54:16.088Z,64.62
2023-05-01T14:56:42.792Z,64.86
2023-05-01T14:59:09.302Z,64.96
2023-05-01T15:01:36.150Z,65.15
2023-05-01T15:04:03.917Z,64.72
2023-05-01T15:06:30.764Z,66.06
2023-05-01T15:08:57.251Z,64.99
2023-05-01T15:11:23.720Z,63.42
2023-05-01T15:13:50.482Z,64.06
2023-05-01T15:16:17.239Z,63.43
2023-05-01T15:18:43.844Z,64.13
2023-05-01T15:21:10.320Z,63.96
2023-05-01T15:23:37.200Z,63.53
2023-05-01T15:26:03.915Z,63.84
2023-05-01T15:28:30.531Z,63.47
2023-05-01T15:30:57.130Z,62.35
2023-05-01T15:33:23.814Z,62.44
2023-05-01T15:35:52.605Z,61.46
2023-05-01T15:38:20.916Z,60.96
2023-05-01T15:40:47.460Z,59.99
2023-05-01T15:43:13.926Z,60.68
2023-05-01T15:45:43.476Z,59.66
2023-05-01T15:48:11.313Z,59.70
2023-05-01T15:50:37.867Z,59.12
2023-05-01T15:53:04.549Z,60.08
2023-05-01T15:55:31.186Z,59.68
2023-05-01T15:57:57.676Z,60.52
2023-05-01T16:00:24.822Z,60.65
2023-05-01T16:02:51.464Z,61.62
2023-05-01T16:05:19.162Z,60.42
2023-05-01T16:07:46.117Z,61.55
2023-05-01T16:10:12.604Z,60.93
2023-05-01T16:12:39.098Z,61.96
2023-05-01T16:15:05.953Z,62.17
2023-05-01T16:17:42.226Z,64.88
2023-05-01T16:20:13.044Z,64.61
2023-05-01T16:22:40.554Z,65.24
2023-05-01T16:25:08.468Z,66.37
2023-05-01T16:27:35.240Z,65.71
2023-05-01T16:30:04.664Z,65.77
2023-05-01T16:32:31.153Z,64.60
2023-05-01T16:34:57.659Z,64.32
2023-05-01T16:37:24.111Z,64.87
2023-05-01T16:39:50.628Z,64.65
2023-05-01T16:42:17.077Z,65.66
2023-05-01T16:44:43.540Z,65.71
2023-05-01T16:47:11.288Z,63.29
2023-05-01T16:49:37.732Z,63.42
2023-05-01T16:52:04.691Z,62.41
2023-05-01T16:54:36.095Z,60.00
2023-05-01T16:57:05.422Z,61.30
2023-05-01T16:59:32.415Z,61.31
2023-05-01T17:01:58.991Z,63.05
2023-05-01T17:04:26.003Z,63.89
2023-05-01T17:06:52.703Z,63.73
2023-05-01T17:09:19.243Z,65.06
2023-05-01T17:11:46.235Z,62.83
2023-05-01T17:14:12.706Z,62.00
2023-05-01T17:16:40.332Z,62.32
2023-05-01T17:19:09.636Z,64.64
2023-05-01T17:21:36.207Z,64.69
2023-05-01T17:24:02.763Z,65.68
2023-05-01T17:26:29.234Z,65.86
2023-05-01T17:28:55.714Z,66.35
2023-05-01T17:31:22.857Z,65.98
2023-05-01T17:33:49.539Z,66.59
2023-05-01T17:36:16.238Z,67.04
2023-05-01T17:38:42.704Z,67.71
2023-05-01T17:41:09.158Z,68.52
2023-05-01T17:43:35.720Z,69.29
2023-05-01T17:46:02.337Z,69.72
2023-05-01T17:48:28.841Z,70.29
2023-05-01T17:50:55.805Z,71.39
2023-05-01T17:53:23.221Z,72.01
2023-05-01T17:55:49.743Z,72.61
2023-05-01T17:58:16.291Z,73.19
2023-05-01T18:00:42.876Z,73.40
2023-05-01T18:03:09.470Z,73.30
2023-05-01T18:05:36.057Z,73.38
2023-05-01T18:08:02.559Z,72.80
2023-05-01T18:10:31.153Z,73.51
2023-05-01T18:12:58.216Z,74.18
2023-05-01T18:15:24.932Z,74.75
2023-05-01T18:17:51.854Z,75.03
2023-05-01T18:20:18.534Z,75.81
2023-05-01T18:22:45.302Z,75.99
2023-05-01T18:25:12.421Z,75.98
2023-05-01T18:27:41.319Z,76.04
2023-05-01T18:30:08.690Z,76.63
2023-05-01T18:32:46.755Z,75.97
2023-05-01T18:35:14.361Z,75.81
2023-05-01T18:37:42.296Z,75.85
2023-05-01T18:40:09.581Z,76.17
2023-05-01T18:42:36.132Z,75.92
2023-05-01T18:45:03.993Z,76.49
2023-05-01T18:47:32.334Z,76.47
2023-05-01T18:49:59.258Z,76.83
2023-05-01T18:52:25.962Z,76.78
2023-05-01T18:54:52.494Z,76.88
2023-05-01T18:57:18.968Z,77.26
2023-05-01T18:59:45.427Z,77.31
2023-05-01T19:02:11.964Z,77.40
2023-05-01T19:04:55.825Z,77.84
2023-05-01T19:07:23.712Z,77.98
2023-05-01T19:09:50.202Z,77.92
2023-05-01T19:12:16.693Z,78.04
2023-05-01T19:14:43.201Z,78.24
2023-05-01T19:17:09.897Z,77.69
2023-05-01T19:19:36.388Z,77.48
2023-05-01T19:22:03.993Z,77.61
2023-05-01T19:24:30.575Z,77.84
2023-05-01T19:26:57.115Z,78.10
2023-05-01T19:29:23.700Z,78.43
2023-05-01T19:31:50.426Z,78.97
2023-05-01T19:34:17.041Z,78.91
2023-05-01T19:36:43.506Z,78.67
2023-05-01T19:39:10.131Z,78.41
2023-05-01T19:41:36.962Z,78.54
2023-05-01T19:44:03.537Z,78.23
2023-05-01T19:46:30.111Z,78.06
2023-05-01T19:48:56.639Z,78.33
2023-05-01T19:51:23.156Z,78.10
2023-05-01T19:53:49.631Z,78.34
2023-05-01T19:56:16.166Z,78.28
2023-05-01T19:58:42.622Z,78.64
2023-05-01T20:01:11.700Z,77.89
2023-05-01T20:03:38.505Z,78.07
2023-05-01T20:06:06.306Z,78.80
2023-05-01T20:08:33.571Z,79.05
2023-05-01T20:11:01.010Z,78.67
2023-05-01T20:13:27.529Z,78.44
2023-05-01T20:15:54.092Z,77.90
2023-05-01T20:18:20.740Z,77.57
2023-05-01T20:20:47.217Z,77.88
2023-05-01T20:23:14.712Z,77.63
2023-05-01T20:25:41.450Z,77.83
2023-05-01T20:28:09.418Z,77.79
2023-05-01T20:30:43.439Z,77.43
2023-05-01T20:33:10.019Z,77.58
2023-05-01T20:35:36.916Z,78.17
2023-05-01T20:38:04.334Z,77.75
2023-05-01T20:40:31.832Z,78.00
2023-05-01T20:43:01.938Z,78.15
2023-05-01T20:45:31.404Z,78.55
2023-05-01T20:47:58.470Z,78.50
2023-05-01T20:50:25.828Z,78.34
2023-05-01T20:52:53.377Z,78.03
2023-05-01T20:55:19.838Z,77.85
2023-05-01T20:57:46.323Z,77.87
2023-05-01T21:00:13.290Z,77.35
2023-05-01T21:02:40.521Z,77.06
2023-05-01T21:05:08.878Z,77.20
2023-05-01T21:07:37.304Z,76.72
2023-05-01T21:10:09.008Z,76.68
2023-05-01T21:12:35.545Z,76.88
2023-05-01T21:15:02.673Z,76.90
2023-05-01T21:17:33.059Z,77.18
2023-05-01T21:19:59.890Z,77.39
2023-05-01T21:22:26.760Z,77.98
2023-05-01T21:24:54.506Z,77.86
2023-05-01T21:27:21.446Z,77.59
2023-05-01T21:29:52.498Z,77.79
2023-05-01T21:32:18.984Z,77.72
2023-05-01T21:34:45.436Z,78.02
2023-05-01T21:37:13.848Z,77.92
2023-05-01T21:39:40.526Z,77.77
2023-05-01T21:42:06.982Z,77.75
2023-05-01T21:44:33.450Z,77.55
2023-05-01T21:47:00.857Z,77.07
2023-05-01T21:49:27.375Z,77.44
2023-05-01T21:51:54.372Z,76.40
2023-05-01T21:54:21.717Z,75.47
2023-05-01T21:56:48.317Z,76.44
2023-05-01T21:59:14.940Z,75.84
2023-05-01T22:01:41.582Z,75.54
2023-05-01T22:04:08.359Z,74.94
2023-05-01T22:06:35.049Z,75.75
2023-05-01T22:09:01.605Z,74.94
2023-05-01T22:11:28.082Z,74.52
2023-05-01T22:13:54.611Z,75.29
2023-05-01T22:16:21.105Z,75.02
2023-05-01T22:18:49.797Z,76.06
2023-05-01T22:21:16.778Z,76.08
2023-05-01T22:23:43.229Z,76.47
2023-05-01T22:26:09.835Z,76.57
2023-05-01T22:28:36.415Z,77.28
2023-05-01T22:31:03.231Z,77.19
2023-05-01T22:33:29.707Z,77.61
2023-05-01T22:35:56.198Z,77.94
2023-05-01T22:38:22.713Z,78.48
2023-05-01T22:40:49.233Z,78.62
2023-05-01T22:43:16.177Z,78.63
2023-05-01T22:45:42.909Z,78.48
2023-05-01T22:48:09.457Z,78.83
2023-05-01T22:50:35.988Z,78.64
2023-05-01T22:53:02.474Z,78.35
2023-05-01T22:55:29.046Z,78.36
2023-05-01T22:57:55.602Z,78.75
2023-05-01T23:00:23.349Z,78.76
2023-05-01T23:02:50.692Z,78.64
2023-05-01T23:05:17.870Z,78.53
2023-05-01T23:07:44.507Z,78.03
2023-05-01T23:10:11.195Z,78.32
2023-05-01T23:12:40.381Z,78.44
2023-05-01T23:15:09.165Z,78.13
2023-05-01T23:17:36.009Z,77.99
2023-05-01T23:20:02.649Z,77.89
2023-05-01T23:22:29.735Z,77.27
2023-05-01T23:24:56.197Z,77.24
2023-05-01T23:27:22.780Z,76.70
2023-05-01T23:29:54.021Z,76.82
2023-05-01T23:32:30.691Z,75.72
2023-05-01T23:35:24.122Z,75.77
2023-05-01T23:37:52.742Z,74.96
2023-05-01T23:40:19.610Z,75.09
2023-05-01T23:42:46.559Z,75.01
2023-05-01T23:45:13.072Z,74.20
2023-05-01T23:47:39.587Z,74.44
2023-05-01T23:50:06.707Z,74.87
2023-05-01T23:52:33.201Z,74.71
2023-05-01T23:54:59.785Z,74.36
2023-05-01T23:57:26.283Z,74.72
2023-05-01T23:59:52.804Z,74.47
